Richvale, California
Current Conditions -  °F | °C
As of 1:53 AM on Sunday 21 Dec 2014 (Local Time) from KOVE Reporting Station
Overcast Overcast  
Wind Chill: 56°   Ceiling: 2700
Heat Index: 56°   Visibility: 10mi
Dew Point: 50°   Wind: 9mph
Humidity: 80%   Direction: 90°E
Pressure: 30.26"   Gusts: NA
Location:  39.49°N, 121.75°W
Report Text: KOVE 210953Z AUTO 09008KT 10SM OVC027 13/10 A3026 RMK AO2 SLP249 T01330100
Loading
Personal Weather Stations






























Interactive Weather Map New forecast layout! Learn more

10-Day Weather Forecast

Advertisements
Track Severe Weather on mobile